Aviation Digital Data Service (ADDS)

Output produced by METARs form (1601 UTC 05 March 2015)
found at http://aviationweather.gov/adds/metars/
 
KGSO 051331Z 0514/0612 03012G22KT 3SM -RA OVC006 WS012/23040KT 
     TEMPO 0514/0516 2SM RA BR OVC004 
     FM051600 03001KT 1 1/2SM -RA BR OVC003 
     FM052200 02011KT 1SM -RAPL BR OVC002 
     FM060100 02010KT 2SM -SNPL BR OVC005 
     FM060300 35010KT 5SM BR OVC025